Time;durP1;ratioP1;P1;durP2;ratioP2;P2;SDS_P1;SDS_P2;PMS_P1;PMS_P2;Temp;Humidity;BMP_temperature;BMP_pressure;BME280_temperature;BME280_humidity;BME280_pressure;Samples;Min_cycle;Max_cycle;Signal;HPM_P1;HPM_P2
2022/01/01 00:02:23;;;;;;;5.83;4.83;;;13.30;87.00;;;;;;5009699;28;21007;-68
2022/01/01 00:05:08;;;;;;;5.73;4.63;;;13.30;86.90;;;;;;5007370;28;20550;-68
2022/01/01 00:07:38;;;;;;;5.47;4.00;;;13.30;86.80;;;;;;5009402;28;20799;-68
2022/01/01 00:10:08;;;;;;;7.50;3.90;;;13.30;86.70;;;;;;5007930;28;20451;-68
2022/01/01 00:12:36;;;;;;;7.77;4.27;;;13.30;86.80;;;;;;5008884;28;20971;-68
2022/01/01 00:15:05;;;;;;;5.57;3.90;;;13.30;86.90;;;;;;5007965;28;20474;-68
2022/01/01 00:17:33;;;;;;;9.53;5.50;;;13.30;86.90;;;;;;5026821;28;20459;-68
2022/01/01 00:20:01;;;;;;;7.53;5.20;;;13.30;86.90;;;;;;5027369;28;20925;-68
2022/01/01 00:22:30;;;;;;;9.70;5.47;;;13.20;86.80;;;;;;5028435;28;20940;-67
2022/01/01 00:24:58;;;;;;;7.87;5.70;;;13.20;86.80;;;;;;5027030;28;21027;-68
2022/01/01 00:27:26;;;;;;;7.40;5.37;;;13.20;86.80;;;;;;5026722;28;20482;-68
2022/01/01 00:29:54;;;;;;;6.60;5.10;;;13.20;86.80;;;;;;5027638;28;20842;-68
2022/01/01 00:32:21;;;;;;;7.13;5.33;;;13.20;86.90;;;;;;5008796;28;20891;-67
2022/01/01 00:34:50;;;;;;;7.23;5.63;;;13.10;86.90;;;;;;5008535;28;21023;-68
2022/01/01 00:37:19;;;;;;;6.60;5.13;;;13.10;86.80;;;;;;5005444;28;21238;-69
2022/01/01 00:39:48;;;;;;;10.43;6.70;;;13.10;86.80;;;;;;5005403;28;20485;-68
2022/01/01 00:42:16;;;;;;;9.57;5.63;;;13.10;86.90;;;;;;5001891;28;20460;-68
2022/01/01 00:44:44;;;;;;;7.93;5.50;;;13.20;86.90;;;;;;5002687;28;20464;-69
2022/01/01 00:47:12;;;;;;;7.10;5.83;;;13.10;86.80;;;;;;5024648;28;20565;-68
2022/01/01 00:49:40;;;;;;;10.17;5.80;;;13.10;86.80;;;;;;5025920;28;20537;-67
2022/01/01 00:52:08;;;;;;;9.20;5.33;;;13.10;86.70;;;;;;5032267;28;20450;-68
2022/01/01 00:54:36;;;;;;;7.33;5.43;;;13.10;86.80;;;;;;5027293;28;20463;-67
2022/01/01 00:57:05;;;;;;;7.40;6.10;;;13.10;86.80;;;;;;5027634;28;20458;-67
2022/01/01 00:59:33;;;;;;;8.00;6.13;;;13.10;86.80;;;;;;5024765;28;20489;-69
2022/01/01 01:02:01;;;;;;;8.37;6.40;;;13.10;86.80;;;;;;5025157;28;20528;-68
2022/01/01 01:04:29;;;;;;;8.27;6.23;;;13.10;86.70;;;;;;5030958;28;20471;-69
2022/01/01 01:06:57;;;;;;;7.67;5.30;;;13.10;86.70;;;;;;5020980;28;20538;-69
2022/01/01 01:09:25;;;;;;;9.33;5.53;;;13.10;86.70;;;;;;5026031;28;21247;-69
2022/01/01 01:11:55;;;;;;;8.10;6.30;;;13.10;86.70;;;;;;5026532;28;21118;-69
2022/01/01 01:14:27;;;;;;;8.63;6.10;;;13.10;86.60;;;;;;5025754;28;21226;-70
2022/01/01 01:16:56;;;;;;;8.30;5.90;;;13.10;86.60;;;;;;5027084;28;20506;-70
2022/01/01 01:19:24;;;;;;;8.40;6.17;;;13.10;86.70;;;;;;5025241;28;20533;-68
2022/01/01 01:21:52;;;;;;;9.67;6.17;;;13.00;86.70;;;;;;5017150;28;21129;-68
2022/01/01 01:24:23;;;;;;;7.50;6.13;;;13.10;86.60;;;;;;5021457;28;20466;-68
2022/01/01 01:26:53;;;;;;;9.00;6.23;;;13.00;86.60;;;;;;5018089;28;20491;-68
2022/01/01 01:29:21;;;;;;;9.73;6.27;;;13.00;86.50;;;;;;5030321;28;21064;-68
2022/01/01 01:31:50;;;;;;;10.30;6.30;;;13.00;86.50;;;;;;5027141;28;20468;-68
2022/01/01 01:34:18;;;;;;;9.17;6.07;;;13.00;86.50;;;;;;5024193;28;20452;-69
2022/01/01 01:36:46;;;;;;;8.60;6.43;;;12.90;86.50;;;;;;5028280;28;20454;-70
2022/01/01 01:39:14;;;;;;;10.17;6.57;;;12.90;86.50;;;;;;5025586;28;20533;-68
2022/01/01 01:41:44;;;;;;;9.60;6.67;;;12.90;86.60;;;;;;5024132;28;20462;-70
2022/01/01 01:44:26;;;;;;;8.20;6.67;;;12.80;86.50;;;;;;5019869;28;20497;-70
2022/01/01 01:46:56;;;;;;;11.13;5.83;;;12.80;86.60;;;;;;5022301;28;21058;-69
2022/01/01 01:49:24;;;;;;;8.57;6.10;;;12.80;86.60;;;;;;5025571;28;20497;-70
2022/01/01 01:51:53;;;;;;;8.90;6.80;;;12.80;86.60;;;;;;5025537;28;20499;-70
2022/01/01 01:54:21;;;;;;;10.40;6.40;;;12.80;86.70;;;;;;5025794;28;20465;-70
2022/01/01 01:56:51;;;;;;;6.80;5.50;;;12.80;86.70;;;;;;5024628;28;20827;-70
2022/01/01 01:59:18;;;;;;;8.43;6.30;;;12.80;86.70;;;;;;5023004;28;20851;-70
2022/01/01 02:01:46;;;;;;;7.67;6.17;;;12.70;86.70;;;;;;5037777;28;20578;-70
2022/01/01 02:04:16;;;;;;;9.50;6.13;;;12.70;86.70;;;;;;5023243;28;20448;-69
2022/01/01 02:06:45;;;;;;;9.50;5.90;;;12.70;86.90;;;;;;5022670;28;20470;-68
2022/01/01 02:09:13;;;;;;;8.80;6.63;;;12.80;86.80;;;;;;5024449;28;20525;-70
2022/01/01 02:11:42;;;;;;;7.67;5.90;;;12.80;86.80;;;;;;5026179;28;20505;-69
2022/01/01 02:14:16;;;;;;;7.57;5.43;;;12.80;86.90;;;;;;5026985;28;20474;-70
2022/01/01 02:19:49;;;;;;;8.93;5.83;;;12.80;86.70;;;;;;5019448;28;20524;-69
2022/01/01 02:22:20;;;;;;;7.53;5.90;;;12.70;86.70;;;;;;5023595;28;21085;-70
2022/01/01 02:24:48;;;;;;;7.53;5.83;;;12.70;86.70;;;;;;5026181;28;20486;-69
2022/01/01 02:27:17;;;;;;;9.70;6.10;;;12.80;86.80;;;;;;5021770;28;20446;-70
2022/01/01 02:29:45;;;;;;;8.07;5.60;;;12.80;86.70;;;;;;5023370;28;20514;-69
2022/01/01 02:32:15;;;;;;;7.80;5.67;;;12.80;86.70;;;;;;5023502;28;20479;-70
2022/01/01 02:34:44;;;;;;;8.30;5.87;;;12.70;86.60;;;;;;5024885;28;20448;-70
2022/01/01 02:37:12;;;;;;;7.97;5.87;;;12.70;86.70;;;;;;5021904;28;20517;-70
2022/01/01 02:39:42;;;;;;;6.80;6.00;;;12.70;86.80;;;;;;5024323;28;20477;-70
2022/01/01 02:42:12;;;;;;;7.60;6.30;;;12.70;86.80;;;;;;5023403;28;20586;-69
2022/01/01 02:44:43;;;;;;;10.00;6.13;;;12.70;86.80;;;;;;5024365;28;20465;-70
2022/01/01 02:47:10;;;;;;;11.50;6.63;;;12.80;86.70;;;;;;5023577;28;20485;-70
2022/01/01 02:49:39;;;;;;;6.60;5.87;;;12.70;86.60;;;;;;5023040;28;20480;-70
2022/01/01 02:52:07;;;;;;;8.00;6.23;;;12.70;86.70;;;;;;5023308;28;20458;-70
2022/01/01 02:54:35;;;;;;;8.50;6.37;;;12.70;86.70;;;;;;5023769;28;20476;-70
2022/01/01 02:57:04;;;;;;;8.47;6.20;;;12.70;86.70;;;;;;5023796;28;20482;-70
2022/01/01 02:59:33;;;;;;;9.97;6.37;;;12.70;86.80;;;;;;5022458;28;20736;-69
2022/01/01 03:02:01;;;;;;;7.93;6.03;;;12.80;86.70;;;;;;5023439;28;20490;-70
2022/01/01 03:04:29;;;;;;;8.63;6.60;;;12.80;86.70;;;;;;5023446;28;20446;-70
2022/01/01 03:06:58;;;;;;;7.37;5.23;;;12.80;86.60;;;;;;5023378;28;20480;-70
2022/01/01 03:09:34;;;;;;;13.03;5.87;;;12.80;86.60;;;;;;5021021;28;20563;-68
2022/01/01 03:12:04;;;;;;;7.33;5.60;;;12.80;86.50;;;;;;5022863;28;20438;-68
2022/01/01 03:14:33;;;;;;;8.50;5.80;;;12.70;86.40;;;;;;5023220;28;20519;-69
2022/01/01 03:17:01;;;;;;;7.40;5.80;;;12.70;86.50;;;;;;5021207;28;20477;-69
2022/01/01 03:19:29;;;;;;;12.30;7.00;;;12.70;86.50;;;;;;5020987;28;20544;-69
2022/01/01 03:21:58;;;;;;;8.53;5.10;;;12.70;86.50;;;;;;5019593;28;20487;-70
2022/01/01 03:24:26;;;;;;;7.50;5.60;;;12.70;86.60;;;;;;5021962;28;20447;-69
2022/01/01 03:26:55;;;;;;;9.03;6.00;;;12.70;86.50;;;;;;5021275;28;20454;-69
2022/01/01 03:29:28;;;;;;;8.83;6.07;;;12.70;86.50;;;;;;5022912;28;21314;-69
2022/01/01 03:31:56;;;;;;;7.63;5.27;;;12.60;86.40;;;;;;5021143;28;20514;-70
2022/01/01 03:34:24;;;;;;;8.73;5.40;;;12.60;86.50;;;;;;5021795;28;20449;-70
2022/01/01 03:36:52;;;;;;;7.77;6.30;;;12.60;86.60;;;;;;5021961;28;20797;-70
2022/01/01 03:39:22;;;;;;;10.60;6.40;;;12.60;86.50;;;;;;5022889;28;20547;-70
2022/01/01 03:41:50;;;;;;;8.73;6.20;;;12.60;86.50;;;;;;5023413;28;20470;-70
2022/01/01 03:44:18;;;;;;;7.90;5.63;;;12.50;86.60;;;;;;5022452;28;20463;-70
2022/01/01 03:46:47;;;;;;;9.20;5.90;;;12.50;86.70;;;;;;5023676;28;20583;-70
2022/01/01 03:49:15;;;;;;;10.00;6.13;;;12.50;86.60;;;;;;5022401;28;21121;-68
2022/01/01 03:51:43;;;;;;;11.77;5.77;;;12.50;86.60;;;;;;5022341;28;20504;-70
2022/01/01 03:54:12;;;;;;;9.50;6.53;;;12.60;86.60;;;;;;5019942;28;20462;-70
2022/01/01 03:56:40;;;;;;;8.80;6.43;;;12.60;86.50;;;;;;5021735;28;20462;-69
2022/01/01 03:59:08;;;;;;;11.43;7.20;;;12.50;86.50;;;;;;5023423;28;20554;-70
2022/01/01 04:01:36;;;;;;;8.27;6.37;;;12.50;86.60;;;;;;5023071;28;20483;-70
2022/01/01 04:04:05;;;;;;;8.07;6.60;;;12.50;86.50;;;;;;5024133;28;20552;-69
2022/01/01 04:06:33;;;;;;;8.27;6.47;;;12.50;86.50;;;;;;5016014;28;20548;-70
2022/01/01 04:09:01;;;;;;;8.33;6.23;;;12.50;86.40;;;;;;5013494;28;20483;-70
2022/01/01 04:11:29;;;;;;;9.07;6.87;;;12.50;86.40;;;;;;5022805;28;20556;-68
2022/01/01 04:13:57;;;;;;;7.40;6.27;;;12.50;86.40;;;;;;5023543;28;20470;-70
2022/01/01 04:16:27;;;;;;;8.70;6.80;;;12.40;86.50;;;;;;5023193;28;21024;-70
2022/01/01 04:18:55;;;;;;;8.93;5.83;;;12.40;86.50;;;;;;5022385;28;20488;-70
2022/01/01 04:21:24;;;;;;;10.07;6.37;;;12.40;86.50;;;;;;5020738;28;20509;-69
2022/01/01 04:23:52;;;;;;;9.67;6.67;;;12.40;86.40;;;;;;5022996;28;20461;-70
2022/01/01 04:26:20;;;;;;;8.20;6.10;;;12.40;86.30;;;;;;5023971;28;20537;-70
2022/01/01 04:28:48;;;;;;;10.63;7.30;;;12.40;86.20;;;;;;5024306;28;20483;-71
2022/01/01 04:31:16;;;;;;;12.47;8.70;;;12.40;86.20;;;;;;5025849;28;21115;-70
2022/01/01 04:33:44;;;;;;;10.33;7.37;;;12.30;86.10;;;;;;5026141;28;20999;-70
2022/01/01 04:36:13;;;;;;;10.27;7.00;;;12.30;86.20;;;;;;5024878;28;20454;-70
2022/01/01 04:38:44;;;;;;;11.13;7.63;;;12.30;86.10;;;;;;5023421;28;20554;-70
2022/01/01 04:41:15;;;;;;;8.10;6.30;;;12.30;86.10;;;;;;5025032;28;20480;-70
2022/01/01 04:43:47;;;;;;;7.30;6.30;;;12.30;86.10;;;;;;5027133;28;20455;-68
2022/01/01 04:46:16;;;;;;;8.17;6.50;;;12.30;86.10;;;;;;5025847;28;20561;-71
2022/01/01 04:48:44;;;;;;;9.20;6.30;;;12.30;85.90;;;;;;5025934;28;20472;-68
2022/01/01 04:51:12;;;;;;;8.57;6.10;;;12.30;85.80;;;;;;5026288;28;20451;-68
2022/01/01 04:53:43;;;;;;;9.37;6.60;;;12.20;85.60;;;;;;5023305;28;20453;-70
2022/01/01 04:56:18;;;;;;;10.03;7.63;;;12.20;85.60;;;;;;5026101;28;20465;-69
2022/01/01 04:58:46;;;;;;;8.37;5.63;;;12.10;85.60;;;;;;5027091;28;20485;-70
2022/01/01 05:01:14;;;;;;;7.80;5.93;;;12.10;85.60;;;;;;5030784;28;20484;-69
2022/01/01 05:03:42;;;;;;;8.67;5.97;;;12.10;85.50;;;;;;5027241;28;20505;-69
2022/01/01 05:06:10;;;;;;;9.03;5.60;;;12.00;85.40;;;;;;5025452;28;21502;-68
2022/01/01 05:08:38;;;;;;;9.60;5.83;;;12.00;85.40;;;;;;5025648;28;20496;-68
2022/01/01 05:11:08;;;;;;;9.70;6.13;;;12.00;85.40;;;;;;5028680;28;20471;-69
2022/01/01 05:13:36;;;;;;;12.97;9.00;;;12.00;85.30;;;;;;5030868;28;20984;-69
2022/01/01 05:16:05;;;;;;;12.00;8.30;;;11.90;85.20;;;;;;5025861;28;20472;-70
2022/01/01 05:18:36;;;;;;;13.30;8.90;;;11.80;85.30;;;;;;5026354;28;20482;-68
2022/01/01 05:21:04;;;;;;;14.70;10.43;;;11.80;85.30;;;;;;5026512;28;21024;-70
2022/01/01 05:23:32;;;;;;;18.57;10.60;;;11.80;85.30;;;;;;5026495;28;20960;-70
2022/01/01 05:26:00;;;;;;;17.47;10.53;;;11.80;85.30;;;;;;5025348;28;20451;-70
2022/01/01 05:28:30;;;;;;;27.60;14.97;;;11.80;85.20;;;;;;5023504;28;20518;-70
2022/01/01 05:30:58;;;;;;;25.60;16.93;;;11.80;85.20;;;;;;5024039;28;20485;-70
2022/01/01 05:33:26;;;;;;;25.20;17.20;;;11.80;85.20;;;;;;5025546;28;20456;-70
2022/01/01 05:35:54;;;;;;;27.87;20.47;;;11.70;85.30;;;;;;5023658;28;20526;-70
2022/01/01 05:38:23;;;;;;;25.90;19.30;;;11.70;85.20;;;;;;5019131;28;20483;-70
2022/01/01 05:40:54;;;;;;;24.17;17.13;;;11.70;85.40;;;;;;5022581;28;20465;-70
2022/01/01 05:43:22;;;;;;;17.40;12.10;;;11.70;85.30;;;;;;5022914;28;21210;-69
2022/01/01 05:45:51;;;;;;;12.87;8.87;;;11.70;85.40;;;;;;5023964;28;20468;-69
2022/01/01 05:48:20;;;;;;;13.30;7.97;;;11.70;85.50;;;;;;5025033;28;21264;-70
2022/01/01 05:50:48;;;;;;;10.33;6.63;;;11.80;85.60;;;;;;5024592;28;20447;-70
2022/01/01 05:53:16;;;;;;;9.23;6.70;;;11.80;85.60;;;;;;5019174;28;21024;-69
2022/01/01 05:55:44;;;;;;;10.60;7.17;;;11.90;85.70;;;;;;5021414;28;20458;-71
2022/01/01 05:58:12;;;;;;;8.73;6.10;;;11.90;85.60;;;;;;5023846;28;20486;-70
2022/01/01 06:00:41;;;;;;;7.23;5.60;;;11.90;85.70;;;;;;5019271;28;20884;-68
2022/01/01 06:03:10;;;;;;;11.30;6.57;;;11.90;85.70;;;;;;5009786;28;20535;-69
2022/01/01 06:05:38;;;;;;;11.53;6.17;;;12.00;85.80;;;;;;5008646;28;20580;-70
2022/01/01 06:08:06;;;;;;;9.03;6.00;;;12.00;85.80;;;;;;5008030;28;20494;-69
2022/01/01 06:10:34;;;;;;;7.47;5.90;;;12.10;85.70;;;;;;5007649;28;20466;-70
2022/01/01 06:13:07;;;;;;;11.00;6.50;;;12.10;85.80;;;;;;5003850;28;20448;-70
2022/01/01 06:15:35;;;;;;;8.40;5.47;;;12.10;85.80;;;;;;5010322;28;20471;-70
2022/01/01 06:18:03;;;;;;;8.00;6.20;;;12.20;85.70;;;;;;5020333;28;21005;-71
2022/01/01 06:20:32;;;;;;;7.63;5.80;;;12.20;85.70;;;;;;5022577;28;20464;-69
2022/01/01 06:23:04;;;;;;;10.83;5.57;;;12.20;85.70;;;;;;5024211;28;20475;-67
2022/01/01 06:25:32;;;;;;;9.00;6.20;;;12.20;85.70;;;;;;5024799;28;20532;-70
2022/01/01 06:28:00;;;;;;;7.73;5.57;;;12.20;85.70;;;;;;5023978;28;21067;-69
2022/01/01 06:30:33;;;;;;;6.83;5.00;;;12.20;85.60;;;;;;5021359;28;20523;-70
2022/01/01 06:33:02;;;;;;;9.53;6.13;;;12.20;85.70;;;;;;5000679;28;20480;-70
2022/01/01 06:35:30;;;;;;;8.13;5.57;;;12.30;85.60;;;;;;5001412;28;20473;-69
2022/01/01 06:37:59;;;;;;;10.93;7.33;;;12.20;85.70;;;;;;5001986;28;20927;-70
2022/01/01 06:40:27;;;;;;;7.93;5.90;;;12.30;85.70;;;;;;5003324;28;20481;-69
2022/01/01 06:42:55;;;;;;;8.53;7.10;;;12.30;85.70;;;;;;4998910;28;20477;-68
2022/01/01 06:45:23;;;;;;;9.13;6.87;;;12.30;85.60;;;;;;4998490;28;20553;-69
2022/01/01 06:47:51;;;;;;;11.93;9.30;;;12.30;85.60;;;;;;4997913;28;20564;-67
2022/01/01 06:50:19;;;;;;;11.27;8.40;;;12.30;85.60;;;;;;4999995;28;20471;-69
2022/01/01 06:52:47;;;;;;;10.73;7.70;;;12.30;85.50;;;;;;4999250;28;20464;-69
2022/01/01 06:55:17;;;;;;;9.23;6.90;;;12.30;85.60;;;;;;5000144;28;20972;-68
2022/01/01 06:57:46;;;;;;;8.23;6.80;;;12.30;85.60;;;;;;5004840;28;20488;-69
2022/01/01 07:00:15;;;;;;;11.53;7.30;;;12.30;85.60;;;;;;5001182;28;20460;-68
2022/01/01 07:02:45;;;;;;;10.07;6.70;;;12.30;85.60;;;;;;4998069;28;20466;-68
2022/01/01 07:05:15;;;;;;;10.70;7.70;;;12.30;85.50;;;;;;5001285;28;20874;-68
2022/01/01 07:07:43;;;;;;;8.67;6.83;;;12.20;85.60;;;;;;5001683;28;20471;-68
2022/01/01 07:10:13;;;;;;;9.80;6.97;;;12.30;85.60;;;;;;5002891;28;20481;-68
2022/01/01 07:12:42;;;;;;;9.10;6.60;;;12.30;85.70;;;;;;5002054;28;20514;-69
2022/01/01 07:15:11;;;;;;;11.50;6.53;;;12.30;85.70;;;;;;5001612;28;20477;-69
2022/01/01 07:17:39;;;;;;;8.30;6.20;;;12.30;85.70;;;;;;5001391;28;20457;-68
2022/01/01 07:20:08;;;;;;;10.33;5.73;;;12.30;85.70;;;;;;5001295;28;20466;-69
2022/01/01 07:22:40;;;;;;;8.10;5.60;;;12.30;85.60;;;;;;5003494;28;20904;-69
2022/01/01 07:25:08;;;;;;;7.73;5.50;;;12.40;85.60;;;;;;5002169;28;20532;-69
2022/01/01 07:27:37;;;;;;;6.20;4.90;;;12.40;85.60;;;;;;5002803;28;20462;-69
2022/01/01 07:30:07;;;;;;;7.63;5.30;;;12.30;85.40;;;;;;5004940;28;20505;-70
2022/01/01 07:32:41;;;;;;;11.00;6.50;;;12.30;85.50;;;;;;5027065;28;20473;-69
2022/01/01 07:35:10;;;;;;;8.57;5.53;;;12.30;85.60;;;;;;5023257;28;20525;-68
2022/01/01 07:37:38;;;;;;;9.87;6.60;;;12.30;85.60;;;;;;5021473;28;20467;-68
2022/01/01 07:40:09;;;;;;;7.93;5.87;;;12.40;85.60;;;;;;5021881;28;21479;-69
2022/01/01 07:42:37;;;;;;;9.00;6.43;;;12.40;85.50;;;;;;5021594;28;20460;-69
2022/01/01 07:45:07;;;;;;;7.87;5.20;;;12.40;85.60;;;;;;5021737;28;20484;-68
2022/01/01 07:47:35;;;;;;;7.47;5.47;;;12.40;85.50;;;;;;5020929;28;21051;-68
2022/01/01 07:50:05;;;;;;;7.43;6.30;;;12.30;85.50;;;;;;5023117;28;20475;-70
2022/01/01 07:52:33;;;;;;;9.40;6.67;;;12.40;85.60;;;;;;5022033;28;20502;-69
2022/01/01 07:55:00;;;;;;;11.00;7.10;;;12.40;85.60;;;;;;5023951;28;20470;-68
2022/01/01 07:57:29;;;;;;;9.63;7.23;;;12.40;85.50;;;;;;5025115;28;20505;-68
2022/01/01 07:59:57;;;;;;;12.60;8.53;;;12.40;85.50;;;;;;5025851;28;20463;-69
2022/01/01 08:02:26;;;;;;;12.53;8.43;;;12.30;85.60;;;;;;5008010;28;20483;-68
2022/01/01 08:04:55;;;;;;;11.00;8.63;;;12.40;85.60;;;;;;5007829;28;20496;-68
2022/01/01 08:07:22;;;;;;;27.00;20.00;;;12.30;85.60;;;;;;5008793;28;20453;-68
2022/01/01 08:10:12;;;;;;;28.47;19.20;;;12.30;85.70;;;;;;5008766;28;20473;-68
2022/01/01 08:12:40;;;;;;;34.47;25.07;;;12.40;85.80;;;;;;5006355;28;20458;-69
2022/01/01 08:15:09;;;;;;;33.50;25.50;;;12.40;85.70;;;;;;5009151;28;20547;-68
2022/01/01 08:17:39;;;;;;;19.83;14.40;;;12.40;85.70;;;;;;5028710;28;21059;-69
2022/01/01 08:20:07;;;;;;;16.23;9.40;;;12.40;85.70;;;;;;5026375;28;20457;-69
2022/01/01 08:22:35;;;;;;;13.07;9.23;;;12.50;85.60;;;;;;5027580;28;20476;-68
2022/01/01 08:25:04;;;;;;;13.40;9.70;;;12.50;85.50;;;;;;5024849;28;20585;-70
2022/01/01 08:27:31;;;;;;;13.77;8.70;;;12.40;85.60;;;;;;5026384;28;20457;-68
2022/01/01 08:29:59;;;;;;;13.50;9.90;;;12.40;85.70;;;;;;5026240;28;20548;-68
2022/01/01 08:32:27;;;;;;;14.27;9.20;;;12.50;85.70;;;;;;5008042;28;20548;-69
2022/01/01 08:34:56;;;;;;;11.73;8.43;;;12.50;85.60;;;;;;5004429;28;20464;-68
2022/01/01 08:37:24;;;;;;;12.13;9.03;;;12.40;85.60;;;;;;5007276;28;20491;-69
2022/01/01 08:39:52;;;;;;;12.43;8.50;;;12.40;85.70;;;;;;5007993;28;20462;-68
2022/01/01 08:42:20;;;;;;;14.00;8.80;;;12.40;85.70;;;;;;5005821;28;20462;-68
2022/01/01 08:44:49;;;;;;;16.20;8.03;;;12.40;85.80;;;;;;5005831;28;20474;-69
2022/01/01 08:47:17;;;;;;;15.30;9.63;;;12.40;85.80;;;;;;5004382;28;20486;-69
2022/01/01 08:49:46;;;;;;;19.80;8.30;;;12.50;85.90;;;;;;4977283;28;20490;-69
2022/01/01 08:52:16;;;;;;;11.13;8.27;;;12.50;85.80;;;;;;5003430;28;20465;-68
2022/01/01 08:54:45;;;;;;;14.17;8.90;;;12.50;85.90;;;;;;4998330;28;21007;-68
2022/01/01 08:57:13;;;;;;;13.07;8.43;;;12.50;85.80;;;;;;4996832;28;20461;-68
2022/01/01 08:59:40;;;;;;;11.83;7.93;;;12.50;85.80;;;;;;5005331;28;20494;-68
2022/01/01 09:02:09;;;;;;;11.27;8.70;;;12.50;85.80;;;;;;5005426;28;20543;-68
2022/01/01 09:04:37;;;;;;;11.40;8.40;;;12.50;85.80;;;;;;5007735;28;20489;-68
2022/01/01 09:07:05;;;;;;;12.57;8.70;;;12.50;85.90;;;;;;5004953;28;20468;-69
2022/01/01 09:09:35;;;;;;;13.17;8.90;;;12.50;85.90;;;;;;5006805;28;20504;-68
2022/01/01 09:12:03;;;;;;;12.37;9.13;;;12.50;86.00;;;;;;5004931;28;20469;-68
2022/01/01 09:14:31;;;;;;;15.87;9.33;;;12.60;86.00;;;;;;5006225;28;20520;-69
2022/01/01 09:16:59;;;;;;;10.27;7.33;;;12.60;85.80;;;;;;5005540;28;21121;-68
2022/01/01 09:19:27;;;;;;;10.87;8.20;;;12.60;85.90;;;;;;5006226;28;20542;-68
2022/01/01 09:21:55;;;;;;;11.97;7.97;;;12.60;85.90;;;;;;5002624;28;20468;-69
2022/01/01 09:24:23;;;;;;;10.23;7.00;;;12.70;85.90;;;;;;5003331;28;20487;-69
2022/01/01 09:26:53;;;;;;;11.00;7.63;;;12.70;85.90;;;;;;5004385;28;20463;-68
2022/01/01 09:29:22;;;;;;;10.93;7.87;;;12.70;86.00;;;;;;5007635;28;20564;-69
2022/01/01 09:31:50;;;;;;;10.70;7.80;;;12.70;85.90;;;;;;5006429;28;20489;-68
2022/01/01 09:34:18;;;;;;;10.40;8.20;;;12.70;85.80;;;;;;5005559;28;20452;-69
2022/01/01 09:36:47;;;;;;;11.47;8.07;;;12.80;85.90;;;;;;5007344;28;20471;-69
2022/01/01 09:39:15;;;;;;;10.83;7.83;;;12.80;85.90;;;;;;5008568;28;20494;-69
2022/01/01 09:41:43;;;;;;;10.57;8.50;;;12.80;85.90;;;;;;5006923;28;20451;-68
2022/01/01 09:44:17;;;;;;;9.60;7.40;;;12.80;85.90;;;;;;5008768;28;20511;-69
2022/01/01 09:46:47;;;;;;;11.73;7.20;;;12.80;85.80;;;;;;5007823;28;20840;-70
2022/01/01 09:49:16;;;;;;;10.50;7.63;;;12.80;85.70;;;;;;5006839;28;20554;-69
2022/01/01 09:51:45;;;;;;;9.60;6.93;;;12.90;85.80;;;;;;5006057;28;21265;-69
2022/01/01 09:54:14;;;;;;;11.17;7.97;;;12.80;85.70;;;;;;5007934;28;20459;-70
2022/01/01 09:56:42;;;;;;;11.67;8.10;;;12.80;85.80;;;;;;5005988;28;20458;-69
2022/01/01 09:59:12;;;;;;;10.93;7.90;;;12.80;85.70;;;;;;5007013;28;20494;-69
2022/01/01 10:01:45;;;;;;;15.23;10.10;;;12.80;85.80;;;;;;5019952;28;21046;-69
2022/01/01 10:04:14;;;;;;;22.50;14.90;;;12.80;85.70;;;;;;5024663;28;20477;-69
2022/01/01 10:06:43;;;;;;;23.00;14.30;;;12.90;85.70;;;;;;5025839;28;20530;-70
2022/01/01 10:09:16;;;;;;;20.97;14.00;;;12.90;85.80;;;;;;5026741;28;20564;-69
2022/01/01 10:11:44;;;;;;;19.40;13.83;;;12.90;85.80;;;;;;5027819;28;20457;-68
2022/01/01 10:14:15;;;;;;;13.07;8.93;;;12.90;85.90;;;;;;5023434;28;20528;-68
2022/01/01 10:16:45;;;;;;;15.07;10.03;;;12.90;85.90;;;;;;5013300;28;20484;-69
2022/01/01 10:19:13;;;;;;;11.73;8.23;;;12.90;85.90;;;;;;5004058;28;20471;-69
2022/01/01 10:21:42;;;;;;;16.43;12.00;;;13.00;85.90;;;;;;5006145;28;20470;-69
2022/01/01 10:24:14;;;;;;;16.20;10.50;;;13.00;85.80;;;;;;5005366;28;20447;-69
2022/01/01 10:29:32;;;;;;;23.83;14.73;;;13.10;85.60;;;;;;5006191;28;20526;-69
2022/01/01 10:32:03;;;;;;;20.90;13.60;;;13.10;85.60;;;;;;5022725;28;20877;-69
2022/01/01 10:34:43;;;;;;;16.10;11.43;;;13.10;85.60;;;;;;5023325;28;20442;-68
2022/01/01 10:37:31;;;;;;;13.40;8.60;;;13.10;85.60;;;;;;5027522;28;20540;-70
2022/01/01 10:39:59;;;;;;;12.30;8.77;;;13.10;85.60;;;;;;5026193;28;20462;-69
2022/01/01 10:42:28;;;;;;;11.20;8.63;;;13.20;85.50;;;;;;5025986;28;20459;-69
2022/01/01 10:44:56;;;;;;;11.80;8.33;;;13.20;85.50;;;;;;5022407;28;20493;-69
2022/01/01 10:47:30;;;;;;;11.33;7.60;;;13.10;85.50;;;;;;5004498;28;20488;-69
2022/01/01 10:50:15;;;;;;;11.53;7.93;;;13.10;85.50;;;;;;5005631;28;20455;-69
2022/01/01 10:52:45;;;;;;;13.00;8.20;;;13.20;85.60;;;;;;5005402;28;20451;-69
2022/01/01 10:55:15;;;;;;;10.13;8.70;;;13.20;85.50;;;;;;5003436;28;20449;-69
2022/01/01 10:57:53;;;;;;;7.87;6.27;;;13.20;85.50;;;;;;5004219;28;20472;-70
2022/01/01 11:00:23;;;;;;;9.57;7.47;;;13.20;85.60;;;;;;5018121;28;20476;-69
2022/01/01 11:02:54;;;;;;;10.80;7.40;;;13.20;85.60;;;;;;5004271;28;20454;-69
2022/01/01 11:05:29;;;;;;;9.97;6.50;;;13.20;85.60;;;;;;5005088;28;20479;-69
2022/01/01 11:07:58;;;;;;;7.20;5.80;;;13.20;85.70;;;;;;5004672;28;20496;-69
2022/01/01 11:10:27;;;;;;;7.10;5.50;;;13.20;85.70;;;;;;5004827;28;20582;-69
2022/01/01 11:12:57;;;;;;;9.57;6.77;;;13.30;85.80;;;;;;5001568;28;20463;-70
2022/01/01 11:15:25;;;;;;;8.70;6.27;;;13.30;85.70;;;;;;5002562;28;20863;-70
2022/01/01 11:17:56;;;;;;;6.27;5.27;;;13.40;85.60;;;;;;5003542;28;21024;-69
2022/01/01 11:20:25;;;;;;;6.90;5.30;;;13.40;85.60;;;;;;5004019;28;20466;-69
2022/01/01 11:22:53;;;;;;;9.70;6.93;;;13.40;85.60;;;;;;5003781;28;20960;-69
2022/01/01 11:25:21;;;;;;;9.10;6.30;;;13.40;85.60;;;;;;5005695;28;21392;-69
2022/01/01 11:27:49;;;;;;;10.17;7.00;;;13.50;85.50;;;;;;5003487;28;20478;-70
2022/01/01 11:30:18;;;;;;;11.57;7.10;;;13.50;85.50;;;;;;4994287;28;20462;-70
2022/01/01 11:32:51;;;;;;;9.00;6.07;;;13.50;85.50;;;;;;5008056;28;20458;-69
2022/01/01 11:35:23;;;;;;;9.13;6.87;;;13.50;85.50;;;;;;5008206;28;20451;-69
2022/01/01 11:37:58;;;;;;;11.33;7.57;;;13.60;85.40;;;;;;5007486;28;20484;-69
2022/01/01 11:40:27;;;;;;;10.00;7.20;;;13.60;85.40;;;;;;5002764;28;20481;-70
2022/01/01 11:42:55;;;;;;;10.10;7.40;;;13.60;85.30;;;;;;5006335;28;20597;-71
2022/01/01 11:45:48;;;;;;;11.87;6.80;;;13.60;85.30;;;;;;5008614;28;20569;-72
2022/01/01 11:48:31;;;;;;;8.53;5.70;;;13.60;85.20;;;;;;4992660;28;20504;-69
2022/01/01 11:51:21;;;;;;;9.07;6.30;;;13.60;85.30;;;;;;5008875;28;20514;-71
2022/01/01 11:54:20;;;;;;;9.97;6.63;;;13.60;85.20;;;;;;5007924;28;20459;-69
2022/01/01 11:56:56;;;;;;;7.70;6.03;;;13.60;85.30;;;;;;5009083;28;20546;-71
2022/01/01 11:59:25;;;;;;;7.63;6.03;;;13.60;85.40;;;;;;5005367;28;20486;-71
2022/01/01 12:01:56;;;;;;;7.00;5.73;;;13.70;85.30;;;;;;4999600;28;20877;-71
2022/01/01 12:04:27;;;;;;;8.20;6.00;;;13.70;85.30;;;;;;5007084;28;20503;-71
2022/01/01 12:07:00;;;;;;;8.80;5.33;;;13.70;85.30;;;;;;5004309;28;21094;-70
2022/01/01 12:09:47;;;;;;;8.43;6.20;;;13.80;85.20;;;;;;5003339;28;20490;-71
2022/01/01 12:12:17;;;;;;;7.53;4.93;;;13.80;85.10;;;;;;4999052;28;20464;-70
2022/01/01 12:14:45;;;;;;;6.33;4.43;;;13.80;85.00;;;;;;5005758;28;20469;-71
2022/01/01 12:17:17;;;;;;;6.10;4.23;;;13.80;85.00;;;;;;5005907;28;20943;-70
2022/01/01 12:19:45;;;;;;;9.40;4.90;;;13.80;85.00;;;;;;5008328;28;20491;-70
2022/01/01 12:22:14;;;;;;;6.93;4.00;;;13.80;84.90;;;;;;5005582;28;20459;-71
2022/01/01 12:24:42;;;;;;;7.50;4.23;;;13.80;84.90;;;;;;5006927;28;20533;-71
2022/01/01 12:27:12;;;;;;;10.23;4.60;;;13.80;84.90;;;;;;5004227;28;20497;-71
2022/01/01 12:29:41;;;;;;;8.43;4.80;;;13.80;84.90;;;;;;5006460;28;20501;-70
2022/01/01 12:32:09;;;;;;;8.17;4.57;;;13.80;84.90;;;;;;5005106;28;20491;-71
2022/01/01 12:34:37;;;;;;;11.20;4.87;;;13.80;84.80;;;;;;5008063;28;20483;-71
2022/01/01 12:37:07;;;;;;;5.87;3.70;;;13.80;84.80;;;;;;5002484;28;20456;-68
2022/01/01 12:40:00;;;;;;;6.23;4.20;;;13.80;84.80;;;;;;5011219;28;20486;-73
2022/01/01 12:42:29;;;;;;;7.77;4.50;;;13.80;84.80;;;;;;5007409;28;20499;-70
2022/01/01 12:44:59;;;;;;;6.97;3.90;;;13.90;84.70;;;;;;5003939;28;20895;-69
2022/01/01 12:47:29;;;;;;;7.43;4.07;;;13.90;84.70;;;;;;5007426;28;21027;-69
2022/01/01 12:49:59;;;;;;;7.57;4.50;;;13.90;84.60;;;;;;5000715;28;20472;-68
2022/01/01 12:52:28;;;;;;;11.03;4.93;;;13.90;84.70;;;;;;5006835;28;20957;-70
2022/01/01 12:54:59;;;;;;;6.67;4.50;;;13.90;84.60;;;;;;5008104;28;20462;-68
2022/01/01 12:57:32;;;;;;;6.47;3.67;;;13.90;84.60;;;;;;5005793;28;20463;-67
2022/01/01 13:00:21;;;;;;;6.60;4.13;;;13.90;84.60;;;;;;5001227;28;21082;-67